createdAt,value
2023-03-20T00:00:02.183Z,0
2023-03-20T00:01:01.544Z,0
2023-03-20T00:02:01.184Z,0
2023-03-20T00:03:01.519Z,0
2023-03-20T00:04:01.173Z,0
2023-03-20T00:05:01.201Z,0
2023-03-20T00:06:01.194Z,0
2023-03-20T00:07:01.504Z,0
2023-03-20T00:08:01.165Z,0
2023-03-20T00:09:07.176Z,0.03888888888888889
2023-03-20T00:10:01.245Z,0
2023-03-20T00:11:01.368Z,0
2023-03-20T00:12:01.226Z,0
2023-03-20T00:13:01.948Z,0
2023-03-20T00:14:01.524Z,0.036111111111111115
2023-03-20T00:15:01.365Z,0
2023-03-20T00:16:02.172Z,0
2023-03-20T00:17:01.189Z,0
2023-03-20T00:18:00.879Z,0
2023-03-20T00:19:00.681Z,0
2023-03-20T00:20:00.354Z,0
2023-03-20T00:21:00.042Z,0
2023-03-20T00:21:59.850Z,0
2023-03-20T00:23:01.703Z,0
2023-03-20T00:24:02.323Z,0
2023-03-20T00:25:02.040Z,0
2023-03-20T00:26:01.183Z,0
2023-03-20T00:27:01.151Z,0
2023-03-20T00:28:01.428Z,0
2023-03-20T00:29:02.348Z,0
2023-03-20T00:30:01.842Z,0.11944444444444444
2023-03-20T00:31:01.795Z,0
2023-03-20T00:32:01.855Z,0
2023-03-20T00:33:02.469Z,0.3055555555555556
2023-03-20T00:34:01.749Z,0
2023-03-20T00:35:02.632Z,0
2023-03-20T00:36:01.927Z,0
2023-03-20T00:37:01.534Z,0.036111111111111115
2023-03-20T00:38:01.412Z,0
2023-03-20T00:39:01.403Z,0
2023-03-20T00:40:04.139Z,0
2023-03-20T00:41:01.191Z,0
2023-03-20T00:42:01.124Z,0
2023-03-20T00:43:01.106Z,0
2023-03-20T00:44:01.510Z,0
2023-03-20T00:45:01.545Z,0
2023-03-20T00:46:02.639Z,0
2023-03-20T00:47:01.314Z,0
2023-03-20T00:48:02.051Z,0
2023-03-20T00:49:01.976Z,0
2023-03-20T00:50:01.430Z,0
2023-03-20T00:51:05.831Z,0.011111111111111112
2023-03-20T00:52:01.882Z,0.11388888888888887
2023-03-20T00:53:02.330Z,0.11944444444444444
2023-03-20T00:54:01.423Z,0.19999999999999998
2023-03-20T00:55:01.442Z,0.15833333333333333
2023-03-20T00:56:10.002Z,0.011111111111111112
2023-03-20T00:57:01.105Z,0
2023-03-20T00:58:01.561Z,0.22777777777777775
2023-03-20T00:59:01.528Z,0.19999999999999998
2023-03-20T01:00:02.289Z,0
2023-03-20T01:01:13.374Z,0.049999999999999996
2023-03-20T01:02:01.189Z,0
2023-03-20T01:03:01.144Z,0.35833333333333334
2023-03-20T01:04:01.174Z,0
2023-03-20T01:05:01.302Z,0.15833333333333333
2023-03-20T01:06:15.789Z,0.3805555555555556
2023-03-20T01:07:01.431Z,0.15833333333333333
2023-03-20T01:08:01.219Z,0.08055555555555555
2023-03-20T01:09:01.089Z,0
2023-03-20T01:10:01.094Z,0
2023-03-20T01:11:01.082Z,0.11944444444444444
2023-03-20T01:12:01.099Z,0
2023-03-20T01:13:01.217Z,0.03888888888888889
2023-03-20T01:14:01.146Z,0
2023-03-20T01:15:01.188Z,0
2023-03-20T01:16:01.053Z,0
2023-03-20T01:17:01.239Z,0
2023-03-20T01:18:01.126Z,0
2023-03-20T01:19:01.131Z,0
2023-03-20T01:20:01.155Z,0.15833333333333333
2023-03-20T01:21:01.289Z,0
2023-03-20T01:22:01.481Z,0.31666666666666665
2023-03-20T01:23:01.174Z,0
2023-03-20T01:24:01.068Z,0
2023-03-20T01:25:01.170Z,0
2023-03-20T01:26:01.431Z,0.10833333333333334
2023-03-20T01:27:01.105Z,0.5972222222222222
2023-03-20T01:28:01.130Z,0
2023-03-20T01:29:01.514Z,0
2023-03-20T01:30:01.303Z,0
2023-03-20T01:31:02.037Z,0.03888888888888889
2023-03-20T01:32:02.026Z,0
2023-03-20T01:33:01.160Z,0
2023-03-20T01:34:01.350Z,0.03888888888888889
2023-03-20T01:35:01.517Z,0.11111111111111112
2023-03-20T01:36:01.297Z,0.03888888888888889
2023-03-20T01:37:01.193Z,0.11944444444444444
2023-03-20T01:38:01.148Z,0
2023-03-20T01:39:01.168Z,0.05833333333333333
2023-03-20T01:40:01.077Z,0.03888888888888889
2023-03-20T01:41:01.067Z,0.19999999999999998
2023-03-20T01:42:01.477Z,0
2023-03-20T01:43:01.099Z,0
2023-03-20T01:44:01.456Z,0.15833333333333333
2023-03-20T01:45:01.147Z,0
2023-03-20T01:46:01.148Z,0
2023-03-20T01:47:01.121Z,0.23888888888888887
2023-03-20T01:48:01.134Z,0.5555555555555556
2023-03-20T01:49:01.065Z,0.5361111111111111
2023-03-20T01:50:01.601Z,0.08055555555555555
2023-03-20T01:51:01.523Z,0.4305555555555556
2023-03-20T01:52:01.236Z,0.11944444444444444
2023-03-20T01:53:01.157Z,0
2023-03-20T01:54:00.783Z,0
2023-03-20T01:55:00.446Z,0
2023-03-20T01:56:00.039Z,0.5555555555555556
2023-03-20T01:56:59.736Z,0.019444444444444445
2023-03-20T01:58:04.136Z,0.19722222222222222
2023-03-20T01:59:01.707Z,0.10833333333333334
2023-03-20T02:00:01.356Z,0.03888888888888889
2023-03-20T02:01:01.194Z,0.4361111111111111
2023-03-20T02:02:01.139Z,0.19999999999999998
2023-03-20T02:03:01.510Z,0.036111111111111115
2023-03-20T02:04:01.050Z,0
2023-03-20T02:05:01.164Z,0
2023-03-20T02:06:01.130Z,0
2023-03-20T02:07:00.926Z,0.1361111111111111
2023-03-20T02:08:01.398Z,0.11944444444444444
2023-03-20T02:09:01.167Z,0.3472222222222222
2023-03-20T02:10:01.168Z,0.47777777777777775
2023-03-20T02:11:01.805Z,0
2023-03-20T02:12:01.481Z,0
2023-03-20T02:13:01.280Z,0.7138888888888888
2023-03-20T02:14:01.365Z,0
2023-03-20T02:15:01.375Z,0.03888888888888889
2023-03-20T02:16:01.124Z,0
2023-03-20T02:17:01.224Z,0.46388888888888885
2023-03-20T02:18:01.122Z,0
2023-03-20T02:19:01.896Z,0.2777777777777778
2023-03-20T02:20:01.897Z,0
2023-03-20T02:21:01.168Z,0
2023-03-20T02:22:01.863Z,0.1361111111111111
2023-03-20T02:23:00.942Z,0
2023-03-20T02:24:00.639Z,0
2023-03-20T02:25:00.310Z,0
2023-03-20T02:26:00.008Z,0
2023-03-20T02:27:05.270Z,0
2023-03-20T02:28:01.390Z,0.11944444444444444
2023-03-20T02:29:01.456Z,0
2023-03-20T02:30:01.528Z,0.03888888888888889
2023-03-20T02:31:01.202Z,0
2023-03-20T02:32:08.173Z,0
2023-03-20T02:33:01.183Z,0
2023-03-20T02:34:01.093Z,0
2023-03-20T02:35:01.258Z,0
2023-03-20T02:36:01.176Z,0
2023-03-20T02:37:11.225Z,0
2023-03-20T02:37:59.675Z,0
2023-03-20T02:39:01.525Z,0
2023-03-20T02:40:01.330Z,0
2023-03-20T02:41:01.376Z,0
2023-03-20T02:42:13.902Z,0
2023-03-20T02:43:02.078Z,0
2023-03-20T02:44:01.064Z,0
2023-03-20T02:45:01.146Z,0
2023-03-20T02:46:01.905Z,0
2023-03-20T02:47:16.764Z,0
2023-03-20T02:48:01.177Z,0
2023-03-20T02:49:02.119Z,0
2023-03-20T02:50:01.305Z,0
2023-03-20T02:51:01.502Z,0
2023-03-20T02:52:01.292Z,0
2023-03-20T02:53:01.137Z,0
2023-03-20T02:54:01.819Z,0
2023-03-20T02:55:01.519Z,0.11388888888888887
2023-03-20T02:56:01.167Z,0
2023-03-20T02:57:00.962Z,0
2023-03-20T02:58:01.385Z,0
2023-03-20T02:59:01.231Z,0
2023-03-20T03:00:01.993Z,0
2023-03-20T03:01:01.068Z,0
2023-03-20T03:02:01.470Z,0
2023-03-20T03:03:01.585Z,0
2023-03-20T03:04:01.525Z,0
2023-03-20T03:05:01.278Z,0
2023-03-20T03:06:01.091Z,0
2023-03-20T03:07:01.114Z,0.2777777777777778
2023-03-20T03:08:01.119Z,0.03888888888888889
2023-03-20T03:09:01.477Z,0.03888888888888889
2023-03-20T03:10:01.258Z,0
2023-03-20T03:11:02.662Z,0
2023-03-20T03:12:01.163Z,0
2023-03-20T03:13:01.364Z,0
2023-03-20T03:14:01.150Z,0
2023-03-20T03:15:01.167Z,0
2023-03-20T03:16:01.108Z,0.3972222222222222
2023-03-20T03:17:01.108Z,0.19999999999999998
2023-03-20T03:18:01.502Z,0.07777777777777778
2023-03-20T03:19:01.472Z,0.11111111111111112
2023-03-20T03:20:01.123Z,0.23888888888888887
2023-03-20T03:21:01.108Z,0.11944444444444444
2023-03-20T03:22:01.084Z,0.03888888888888889
2023-03-20T03:23:01.058Z,0.3972222222222222
2023-03-20T03:24:01.122Z,0
2023-03-20T03:25:01.357Z,0
2023-03-20T03:26:01.685Z,0
2023-03-20T03:27:01.372Z,0
2023-03-20T03:28:02.044Z,0
2023-03-20T03:29:02.168Z,0
2023-03-20T03:30:01.232Z,0
2023-03-20T03:31:01.432Z,0
2023-03-20T03:32:02.505Z,0
2023-03-20T03:33:01.249Z,0
2023-03-20T03:34:01.471Z,0
2023-03-20T03:35:02.024Z,0
2023-03-20T03:36:01.139Z,0
2023-03-20T03:37:01.119Z,0.03888888888888889
2023-03-20T03:38:01.279Z,0.15833333333333333
2023-03-20T03:39:01.020Z,0.15833333333333333
2023-03-20T03:40:01.109Z,0
2023-03-20T03:41:01.053Z,0
2023-03-20T03:42:01.125Z,0
2023-03-20T03:43:01.055Z,0
2023-03-20T03:44:01.523Z,0.26944444444444443
2023-03-20T03:45:01.052Z,0
2023-03-20T03:46:01.589Z,0
2023-03-20T03:47:01.268Z,0
2023-03-20T03:48:01.072Z,0
2023-03-20T03:49:01.149Z,0
2023-03-20T03:50:01.469Z,0.11944444444444444
2023-03-20T03:51:01.418Z,0
2023-03-20T03:52:01.910Z,0
2023-03-20T03:53:02.645Z,0
2023-03-20T03:54:02.050Z,0
2023-03-20T03:55:01.701Z,0
2023-03-20T03:56:01.180Z,0
2023-03-20T03:57:01.125Z,0
2023-03-20T03:58:06.404Z,0
2023-03-20T03:59:01.430Z,0
2023-03-20T04:00:01.166Z,0
2023-03-20T04:01:01.314Z,0
2023-03-20T04:02:01.484Z,0
2023-03-20T04:03:09.326Z,0
2023-03-20T04:04:01.117Z,0
2023-03-20T04:05:01.557Z,0
2023-03-20T04:06:02.133Z,0
2023-03-20T04:07:01.081Z,0
2023-03-20T04:08:13.434Z,0
2023-03-20T04:09:01.163Z,0
2023-03-20T04:10:01.917Z,0
2023-03-20T04:11:01.951Z,0.08055555555555555
2023-03-20T04:12:01.213Z,0
2023-03-20T04:13:15.123Z,0
2023-03-20T04:14:01.218Z,0
2023-03-20T04:15:03.121Z,0
2023-03-20T04:16:01.644Z,0
2023-03-20T04:17:01.145Z,0
2023-03-20T04:18:01.166Z,0
2023-03-20T04:19:01.028Z,0
2023-03-20T04:20:01.362Z,0
2023-03-20T04:21:01.064Z,0
2023-03-20T04:22:01.069Z,0
2023-03-20T04:23:01.094Z,0
2023-03-20T04:24:01.498Z,0
2023-03-20T04:25:01.096Z,0
2023-03-20T04:26:01.383Z,0
2023-03-20T04:27:01.197Z,0
2023-03-20T04:28:01.719Z,0
2023-03-20T04:29:01.116Z,0
2023-03-20T04:30:01.299Z,0.3972222222222222
2023-03-20T04:31:01.160Z,0.23888888888888887
2023-03-20T04:32:01.168Z,0.03888888888888889
2023-03-20T04:33:01.733Z,0
2023-03-20T04:34:00.961Z,0
2023-03-20T04:35:01.004Z,0
2023-03-20T04:36:02.026Z,0
2023-03-20T04:37:01.093Z,0
2023-03-20T04:38:01.515Z,0
2023-03-20T04:39:00.883Z,0.23888888888888887
2023-03-20T04:40:01.080Z,0.15833333333333333
2023-03-20T04:41:01.061Z,0.23888888888888887
2023-03-20T04:42:01.165Z,0
2023-03-20T04:43:01.148Z,0
2023-03-20T04:44:00.904Z,0.03888888888888889
2023-03-20T04:45:01.151Z,0
2023-03-20T04:46:01.270Z,0.03888888888888889
2023-03-20T04:47:01.945Z,0.03888888888888889
2023-03-20T04:48:02.275Z,0.19999999999999998
2023-03-20T04:49:01.245Z,0.3972222222222222
2023-03-20T04:50:01.804Z,0.31666666666666665
2023-03-20T04:51:00.973Z,0.11944444444444444
2023-03-20T04:52:01.185Z,0
2023-03-20T04:53:01.066Z,0.2777777777777778
2023-03-20T04:54:01.053Z,0.03888888888888889
2023-03-20T04:55:04.298Z,0.31666666666666665
2023-03-20T04:56:02.174Z,0.08055555555555555
2023-03-20T04:57:01.465Z,0.5166666666666667
2023-03-20T04:58:01.270Z,0.23888888888888887
2023-03-20T04:59:01.205Z,0.15833333333333333
2023-03-20T05:00:01.322Z,0.5555555555555556
2023-03-20T05:01:01.177Z,0.5166666666666667
2023-03-20T05:02:01.126Z,0.3972222222222222
2023-03-20T05:03:00.831Z,0.31666666666666665
2023-03-20T05:04:00.945Z,0.2777777777777778
2023-03-20T05:05:01.557Z,0.4361111111111111
2023-03-20T05:06:01.184Z,0.3972222222222222
2023-03-20T05:07:01.264Z,0.19999999999999998
2023-03-20T05:08:01.175Z,0.2777777777777778
2023-03-20T05:09:01.098Z,0
2023-03-20T05:10:01.238Z,0.3833333333333333
2023-03-20T05:11:01.436Z,0.3972222222222222
2023-03-20T05:12:01.213Z,0.35833333333333334
2023-03-20T05:13:01.186Z,0.2777777777777778
2023-03-20T05:14:01.286Z,0.6388888888888888
2023-03-20T05:15:01.229Z,0.5972222222222222
2023-03-20T05:16:01.220Z,0.3972222222222222
2023-03-20T05:17:01.154Z,0.9138888888888889
2023-03-20T05:18:01.143Z,0.47777777777777775
2023-03-20T05:19:01.453Z,0.33055555555555555
2023-03-20T05:20:01.217Z,0.19999999999999998
2023-03-20T05:21:01.088Z,0.675
2023-03-20T05:22:01.172Z,0.19999999999999998
2023-03-20T05:23:00.856Z,0.5166666666666667
2023-03-20T05:24:01.053Z,0.35555555555555557
2023-03-20T05:25:00.851Z,0.14444444444444446
2023-03-20T05:26:00.583Z,0.31666666666666665
2023-03-20T05:27:00.394Z,0.4361111111111111
2023-03-20T05:27:59.947Z,0.4361111111111111
2023-03-20T05:29:04.122Z,0.25833333333333336
2023-03-20T05:30:01.776Z,0.35833333333333334
2023-03-20T05:31:01.203Z,0.31666666666666665
2023-03-20T05:32:01.288Z,0.35833333333333334
2023-03-20T05:33:01.453Z,0.2777777777777778
2023-03-20T05:34:06.979Z,0.6027777777777777
2023-03-20T05:35:01.156Z,0.2777777777777778
2023-03-20T05:36:01.160Z,0
2023-03-20T05:37:01.053Z,0.3972222222222222
2023-03-20T05:38:01.166Z,0.3972222222222222
2023-03-20T05:39:09.979Z,0.15833333333333333
2023-03-20T05:40:01.499Z,0.19999999999999998
2023-03-20T05:41:01.460Z,0.47777777777777775
2023-03-20T05:42:01.528Z,0.513888888888889
2023-03-20T05:43:01.834Z,0.5361111111111111
2023-03-20T05:44:13.344Z,0.44166666666666665
2023-03-20T05:45:01.603Z,0.1388888888888889
2023-03-20T05:46:01.898Z,0.5166666666666667
2023-03-20T05:47:00.912Z,0.2777777777777778
2023-03-20T05:48:01.166Z,0.2777777777777778
2023-03-20T05:49:15.555Z,0.8111111111111111
2023-03-20T05:50:01.525Z,0.7999999999999999
2023-03-20T05:51:01.612Z,0.2333333333333333
2023-03-20T05:52:02.301Z,0.5555555555555556
2023-03-20T05:53:01.220Z,0.4361111111111111
2023-03-20T05:54:01.282Z,0.4361111111111111
2023-03-20T05:55:01.163Z,0
2023-03-20T05:56:01.891Z,0.2777777777777778
2023-03-20T05:57:01.293Z,0.5555555555555556
2023-03-20T05:58:01.439Z,0.35833333333333334
2023-03-20T05:59:01.151Z,0.9527777777777778
2023-03-20T06:00:02.249Z,0.2333333333333333
2023-03-20T06:01:04.250Z,0.8805555555555555
2023-03-20T06:02:01.100Z,0.8333333333333333
2023-03-20T06:03:01.908Z,0.9944444444444445
2023-03-20T06:04:01.374Z,0.31666666666666665
2023-03-20T06:05:01.352Z,0.8305555555555556
2023-03-20T06:06:01.440Z,0.6194444444444445
2023-03-20T06:07:01.459Z,0.5527777777777778
2023-03-20T06:08:01.176Z,0.31666666666666665
2023-03-20T06:09:01.191Z,0.9138888888888889
2023-03-20T06:10:01.100Z,0.35833333333333334
2023-03-20T06:11:01.726Z,0.6361111111111111
2023-03-20T06:12:01.064Z,0.3972222222222222
2023-03-20T06:13:01.215Z,0.8333333333333333
2023-03-20T06:14:01.077Z,0.31666666666666665
2023-03-20T06:15:01.821Z,0.39444444444444443
2023-03-20T06:16:01.124Z,0.47777777777777775
2023-03-20T06:17:02.258Z,0.15833333333333333
2023-03-20T06:18:01.914Z,0.23888888888888887
2023-03-20T06:19:01.109Z,0.03888888888888889
2023-03-20T06:20:01.245Z,0.5972222222222222
2023-03-20T06:21:01.121Z,0.23888888888888887
2023-03-20T06:22:01.130Z,0.47777777777777775
2023-03-20T06:23:01.356Z,0.3972222222222222
2023-03-20T06:24:01.447Z,0.03888888888888889
2023-03-20T06:25:04.172Z,0.4583333333333333
2023-03-20T06:26:01.167Z,0.47777777777777775
2023-03-20T06:27:01.314Z,0.35833333333333334
2023-03-20T06:28:01.263Z,0.5166666666666667
2023-03-20T06:29:01.846Z,0.5166666666666667
2023-03-20T06:30:01.093Z,0.15833333333333333
2023-03-20T06:31:01.127Z,0.08055555555555555
2023-03-20T06:32:01.081Z,0.35833333333333334
2023-03-20T06:33:01.161Z,0.5555555555555556
2023-03-20T06:34:01.495Z,0.5388888888888889
2023-03-20T06:35:01.164Z,0.675
2023-03-20T06:36:01.237Z,0.31666666666666665
2023-03-20T06:37:01.565Z,0.23888888888888887
2023-03-20T06:38:02.071Z,0
2023-03-20T06:39:01.293Z,0.19999999999999998
2023-03-20T06:40:01.143Z,0.47777777777777775
2023-03-20T06:41:01.449Z,0.4361111111111111
2023-03-20T06:42:02.719Z,0.15833333333333333
2023-03-20T06:43:02.185Z,0.11944444444444444
2023-03-20T06:44:01.552Z,0.3972222222222222
2023-03-20T06:45:01.515Z,0.08055555555555555
2023-03-20T06:46:01.511Z,0.2777777777777778
2023-03-20T06:47:01.076Z,0
2023-03-20T06:48:01.063Z,0.03888888888888889
2023-03-20T06:49:01.329Z,0.3972222222222222
2023-03-20T06:50:02.026Z,0.35833333333333334
2023-03-20T06:51:02.201Z,0.2777777777777778
2023-03-20T06:52:01.098Z,0.08055555555555555
2023-03-20T06:53:01.671Z,0.19999999999999998
2023-03-20T06:54:00.596Z,0.4361111111111111
2023-03-20T06:55:00.466Z,0.24444444444444444
2023-03-20T06:56:00.349Z,0.15833333333333333
2023-03-20T06:57:00.054Z,0.2777777777777778
2023-03-20T06:57:59.715Z,0.15833333333333333
2023-03-20T06:59:01.710Z,0.31666666666666665
2023-03-20T07:00:01.318Z,0.4666666666666666
2023-03-20T07:01:01.217Z,0.5555555555555556
2023-03-20T07:02:01.401Z,0.11944444444444444
2023-03-20T07:03:02.388Z,0.2777777777777778
2023-03-20T07:04:01.243Z,0.19999999999999998
2023-03-20T07:05:01.531Z,0.1527777777777778
2023-03-20T07:06:01.054Z,0.31666666666666665
2023-03-20T07:07:01.102Z,0.875
2023-03-20T07:08:01.118Z,0.5944444444444444
2023-03-20T07:09:01.184Z,0.23888888888888887
2023-03-20T07:10:00.726Z,0.25833333333333336
2023-03-20T07:11:00.327Z,0
2023-03-20T07:12:00.394Z,0.2777777777777778
2023-03-20T07:13:00.354Z,0.8333333333333333
2023-03-20T07:14:00.018Z,1.1111111111111112
2023-03-20T07:15:02.893Z,0.16944444444444443
2023-03-20T07:16:04.398Z,0.47777777777777775
2023-03-20T07:17:01.271Z,0.7944444444444444
2023-03-20T07:18:01.079Z,0.11944444444444444
2023-03-20T07:19:01.107Z,0.4361111111111111
2023-03-20T07:20:05.075Z,0.5888888888888889
2023-03-20T07:21:01.159Z,1.3111111111111111
2023-03-20T07:22:01.491Z,0.7277777777777777
2023-03-20T07:23:02.572Z,1.3416666666666666
2023-03-20T07:24:01.344Z,0.9527777777777778
2023-03-20T07:25:07.909Z,0.4805555555555555
2023-03-20T07:26:01.067Z,0.7944444444444444
2023-03-20T07:27:01.165Z,0.5166666666666667
2023-03-20T07:28:01.210Z,1.0333333333333334
2023-03-20T07:29:01.164Z,0.31666666666666665
2023-03-20T07:30:10.836Z,0.40555555555555556
2023-03-20T07:31:01.610Z,0.07777777777777778
2023-03-20T07:32:01.886Z,0.35833333333333334
2023-03-20T07:33:01.154Z,0.8333333333333333
2023-03-20T07:34:01.090Z,0.15833333333333333
2023-03-20T07:35:13.871Z,0.011111111111111112
2023-03-20T07:36:01.138Z,0
2023-03-20T07:37:01.314Z,0.08055555555555555
2023-03-20T07:38:01.128Z,0.4361111111111111
2023-03-20T07:39:01.838Z,0.875
2023-03-20T07:40:16.188Z,0.4305555555555556
2023-03-20T07:41:01.527Z,0.5166666666666667
2023-03-20T07:42:01.700Z,0.9555555555555555
2023-03-20T07:43:01.315Z,0.5972222222222222
2023-03-20T07:44:01.149Z,0.7555555555555555
2023-03-20T07:45:01.227Z,0.2777777777777778
2023-03-20T07:46:01.438Z,0.2777777777777778
2023-03-20T07:47:01.450Z,0.7555555555555555
2023-03-20T07:48:01.436Z,0.6361111111111111
2023-03-20T07:49:02.490Z,0.8250000000000001
2023-03-20T07:50:02.093Z,1.0055555555555555
2023-03-20T07:51:01.170Z,1.3111111111111111
2023-03-20T07:52:01.087Z,0.7944444444444444
2023-03-20T07:53:01.121Z,0.5972222222222222
2023-03-20T07:54:01.163Z,0.5166666666666667
2023-03-20T07:55:01.121Z,0.35833333333333334
2023-03-20T07:56:01.145Z,0.7555555555555555
2023-03-20T07:57:01.454Z,0.7305555555555555
2023-03-20T07:58:01.172Z,0.6361111111111111
2023-03-20T07:59:01.518Z,0.3972222222222222
2023-03-20T08:00:01.216Z,0.6361111111111111
2023-03-20T08:01:02.064Z,0.875
2023-03-20T08:02:01.139Z,0.5166666666666667
2023-03-20T08:03:01.189Z,0.31666666666666665
2023-03-20T08:04:01.185Z,0.19999999999999998
2023-03-20T08:05:02.054Z,0.9944444444444445
2023-03-20T08:06:01.129Z,0.7555555555555555
2023-03-20T08:07:01.128Z,0.875
2023-03-20T08:08:01.884Z,0.9527777777777778
2023-03-20T08:09:02.089Z,0.23888888888888887
2023-03-20T08:10:01.088Z,0.31666666666666665
2023-03-20T08:11:01.719Z,0.5333333333333333
2023-03-20T08:12:01.497Z,1.9277777777777778
2023-03-20T08:13:02.550Z,0.7138888888888888
2023-03-20T08:14:01.162Z,0.6361111111111111
2023-03-20T08:15:01.145Z,0.35833333333333334
2023-03-20T08:16:01.234Z,0.3972222222222222
2023-03-20T08:17:13.764Z,0.4361111111111111
2023-03-20T08:18:01.234Z,0.5166666666666667
2023-03-20T08:19:01.263Z,0.9527777777777778
2023-03-20T08:20:01.393Z,0.675
2023-03-20T08:21:01.187Z,0.3972222222222222
2023-03-20T08:22:01.461Z,1.172222222222222
2023-03-20T08:23:01.079Z,0.5555555555555556
2023-03-20T08:24:00.775Z,1.1916666666666667
2023-03-20T08:25:00.471Z,0.11944444444444444
2023-03-20T08:26:00.182Z,1.1916666666666667
2023-03-20T08:26:59.971Z,0.675
2023-03-20T08:27:59.629Z,0.675
2023-03-20T08:29:01.852Z,0.11944444444444444
2023-03-20T08:30:02.066Z,0.31666666666666665
2023-03-20T08:31:01.650Z,1.0583333333333333
2023-03-20T08:32:02.155Z,0.8333333333333333
2023-03-20T08:33:01.151Z,1.2722222222222221
2023-03-20T08:34:01.066Z,1.55
2023-03-20T08:35:01.607Z,0.31666666666666665
2023-03-20T08:36:01.198Z,1.2527777777777778
2023-03-20T08:37:01.960Z,0.75
2023-03-20T08:38:01.247Z,0.7555555555555555
2023-03-20T08:39:01.096Z,0.6361111111111111
2023-03-20T08:40:01.799Z,0.675
2023-03-20T08:41:01.916Z,0.6833333333333333
2023-03-20T08:42:01.452Z,0.47777777777777775
2023-03-20T08:43:01.206Z,0.675
2023-03-20T08:44:00.946Z,0.3972222222222222
2023-03-20T08:45:01.127Z,0.5555555555555556
2023-03-20T08:46:01.071Z,1.0138888888888888
2023-03-20T08:47:01.336Z,0.875
2023-03-20T08:48:01.168Z,0.8333333333333333
2023-03-20T08:49:01.142Z,0.35833333333333334
2023-03-20T08:50:01.141Z,0.7138888888888888
2023-03-20T08:51:01.021Z,0.7111111111111111
2023-03-20T08:52:01.721Z,0.21388888888888888
2023-03-20T08:53:01.475Z,0.5972222222222222
2023-03-20T08:54:01.486Z,0.6361111111111111
2023-03-20T08:55:01.114Z,0.7555555555555555
2023-03-20T08:56:05.266Z,0.8722222222222222
2023-03-20T08:57:01.225Z,0.7138888888888888
2023-03-20T08:58:00.724Z,0.8333333333333333
2023-03-20T08:59:00.512Z,0.5555555555555556
2023-03-20T09:00:00.205Z,0.7555555555555555
2023-03-20T09:01:08.117Z,0.675
2023-03-20T09:02:02.183Z,0.6361111111111111
2023-03-20T09:03:02.133Z,0.23888888888888887
2023-03-20T09:04:01.035Z,0.47777777777777775
2023-03-20T09:05:00.957Z,0.31666666666666665
2023-03-20T09:06:12.085Z,0.9222222222222222
2023-03-20T09:07:01.201Z,0.675
2023-03-20T09:08:01.170Z,0.5166666666666667
2023-03-20T09:09:01.193Z,0.9138888888888889
2023-03-20T09:10:01.070Z,0.675
2023-03-20T09:11:15.669Z,0.7888888888888889
2023-03-20T09:12:01.637Z,1.0722222222222222
2023-03-20T09:13:07.302Z,1.025
2023-03-20T09:14:02.164Z,0.4361111111111111
2023-03-20T09:15:01.404Z,1.1111111111111112
2023-03-20T09:16:01.176Z,1.8666666666666665
2023-03-20T09:17:01.975Z,0.7555555555555555
2023-03-20T09:18:02.888Z,0.5555555555555556
2023-03-20T09:19:01.139Z,0.9527777777777778
2023-03-20T09:20:01.159Z,0.9138888888888889
2023-03-20T09:21:01.151Z,1.0333333333333334
2023-03-20T09:22:01.252Z,1.0333333333333334
2023-03-20T09:23:01.422Z,0.6361111111111111
2023-03-20T09:24:00.971Z,0.5972222222222222
2023-03-20T09:25:01.154Z,0.7555555555555555
2023-03-20T09:26:01.358Z,0.7138888888888888
2023-03-20T09:27:03.501Z,0.5166666666666667
2023-03-20T09:28:01.347Z,0.7555555555555555
2023-03-20T09:29:01.461Z,0.7555555555555555
2023-03-20T09:30:01.470Z,1.2305555555555554
2023-03-20T09:31:02.316Z,0.6
2023-03-20T09:32:02.157Z,0.9527777777777778
2023-03-20T09:33:01.866Z,1.7472222222222222
2023-03-20T09:34:01.125Z,0.8333333333333333
2023-03-20T09:35:01.390Z,0.7944444444444444
2023-03-20T09:36:01.174Z,0.5555555555555556
2023-03-20T09:37:01.521Z,0.46944444444444444
2023-03-20T09:38:02.888Z,0.675
2023-03-20T09:39:01.141Z,0.7138888888888888
2023-03-20T09:40:01.245Z,0.23888888888888887
2023-03-20T09:41:01.300Z,0.23888888888888887
2023-03-20T09:42:01.787Z,0.47777777777777775
2023-03-20T09:43:02.532Z,0.513888888888889
2023-03-20T09:44:01.590Z,0.23888888888888887
2023-03-20T09:45:02.680Z,0.7111111111111111
2023-03-20T09:46:01.187Z,0.5555555555555556
2023-03-20T09:47:18.338Z,0.31666666666666665
2023-03-20T09:48:01.130Z,0.03888888888888889
2023-03-20T09:49:01.875Z,0.3972222222222222
2023-03-20T09:50:01.068Z,0.15833333333333333
2023-03-20T09:51:01.136Z,0.2777777777777778
2023-03-20T09:52:01.544Z,0.3527777777777778
2023-03-20T09:53:01.257Z,0.31666666666666665
2023-03-20T09:54:01.558Z,0.3972222222222222
2023-03-20T09:55:02.537Z,0.5472222222222222
2023-03-20T09:56:01.447Z,0.5972222222222222
2023-03-20T09:57:02.224Z,0.7138888888888888
2023-03-20T09:58:01.112Z,0.7138888888888888
2023-03-20T09:59:01.207Z,0.7138888888888888
2023-03-20T10:00:01.110Z,0.7138888888888888
2023-03-20T10:01:01.109Z,0.7944444444444444
2023-03-20T10:02:01.157Z,0.9333333333333332
2023-03-20T10:03:01.261Z,0.675
2023-03-20T10:04:01.195Z,1.3111111111111111
2023-03-20T10:05:01.964Z,0.9749999999999999
2023-03-20T10:06:01.520Z,0.6666666666666666
2023-03-20T10:07:01.050Z,0.8111111111111111
2023-03-20T10:08:01.132Z,1.5888888888888888
2023-03-20T10:09:01.157Z,0.5972222222222222
2023-03-20T10:10:01.145Z,0.7138888888888888
2023-03-20T10:11:01.204Z,0.7138888888888888
2023-03-20T10:12:01.276Z,0.5416666666666666
2023-03-20T10:13:01.195Z,0.675
2023-03-20T10:14:01.490Z,0.47777777777777775
2023-03-20T10:15:01.140Z,0.675
2023-03-20T10:16:01.157Z,0.9138888888888889
2023-03-20T10:17:01.070Z,0.8111111111111111
2023-03-20T10:18:01.652Z,1.35
2023-03-20T10:19:01.142Z,0.47777777777777775
2023-03-20T10:20:01.510Z,1.4
2023-03-20T10:21:01.237Z,0.7944444444444444
2023-03-20T10:22:03.257Z,0.5972222222222222
2023-03-20T10:23:01.877Z,1.0333333333333334
2023-03-20T10:24:01.038Z,1.2722222222222221
2023-03-20T10:25:01.142Z,0.9138888888888889
2023-03-20T10:26:01.312Z,0.8333333333333333
2023-03-20T10:27:05.432Z,0.7
2023-03-20T10:28:02.010Z,1.1694444444444445
2023-03-20T10:29:01.198Z,0.5555555555555556